Time;durP1;ratioP1;P1;durP2;ratioP2;P2;SDS_P1;SDS_P2;PMS_P1;PMS_P2;Temp;Humidity;BMP_temperature;BMP_pressure;BME280_temperature;BME280_humidity;BME280_pressure;Samples;Min_cycle;Max_cycle;Signal;HPM_P1;HPM_P2
2021/03/27 00:00:43;;;;;;;12.93;9.40;;;;;;;13.71;45.18;100934.53;6209818;28;20689;-57
2021/03/27 00:04:12;;;;;;;11.00;9.90;;;;;;;13.62;45.36;100932.09;6216085;28;20506;-56
2021/03/27 00:07:39;;;;;;;13.33;10.23;;;;;;;13.51;45.41;100925.31;6216658;28;20232;-58
2021/03/27 00:11:05;;;;;;;11.10;9.47;;;;;;;13.54;45.60;100925.25;6215745;28;20625;-58
2021/03/27 00:14:38;;;;;;;11.43;10.33;;;;;;;13.66;45.21;100921.50;6216299;28;20260;-54
2021/03/27 00:18:06;;;;;;;11.80;9.73;;;;;;;13.20;46.22;100925.84;6212036;28;20229;-55
2021/03/27 00:21:33;;;;;;;11.10;10.00;;;;;;;13.27;45.87;100913.50;6214973;28;20232;-58
2021/03/27 00:25:02;;;;;;;11.93;10.53;;;;;;;13.27;46.20;100907.44;6206825;28;20305;-56
2021/03/27 00:28:26;;;;;;;18.73;11.97;;;;;;;13.28;45.76;100896.94;6212603;28;20594;-58
2021/03/27 00:31:52;;;;;;;11.67;9.90;;;;;;;13.12;46.26;100900.72;6192234;28;20238;-56
2021/03/27 00:35:17;;;;;;;11.00;8.77;;;;;;;12.80;46.88;100897.78;6192526;28;20613;-57
2021/03/27 00:38:40;;;;;;;11.97;10.77;;;;;;;12.14;48.68;100905.78;6210776;28;21011;-56
2021/03/27 00:42:05;;;;;;;12.97;9.93;;;;;;;12.11;48.77;100892.78;6215755;28;20590;-56
2021/03/27 00:45:27;;;;;;;12.20;10.67;;;;;;;11.85;49.24;100886.13;6214594;28;20266;-54
2021/03/27 00:49:05;;;;;;;11.70;10.50;;;;;;;11.63;50.10;100888.13;6203970;28;20750;-56
2021/03/27 00:52:29;;;;;;;13.33;11.63;;;;;;;12.31;48.46;100879.41;6200070;28;20606;-57
2021/03/27 00:55:56;;;;;;;10.93;9.50;;;;;;;12.02;48.78;100872.91;6201850;28;20228;-58
2021/03/27 00:59:23;;;;;;;11.87;9.97;;;;;;;12.38;48.10;100861.03;6227296;28;20359;-56
2021/03/27 01:02:55;;;;;;;13.20;11.47;;;;;;;12.55;47.74;100852.91;6219944;28;20617;-60
2021/03/27 01:06:40;;;;;;;12.87;10.67;;;;;;;12.19;48.25;100846.53;6214419;28;20542;-58
2021/03/27 01:10:37;;;;;;;10.80;9.63;;;;;;;12.15;48.79;100839.63;6204135;28;20237;-57
2021/03/27 01:14:28;;;;;;;11.73;10.33;;;;;;;12.37;48.12;100833.19;6203028;28;20245;-54
2021/03/27 01:17:53;;;;;;;10.80;9.70;;;;;;;12.49;47.67;100833.88;6190643;28;20233;-57
2021/03/27 01:21:17;;;;;;;12.30;10.17;;;;;;;12.71;47.24;100822.16;6214575;28;20256;-58
2021/03/27 01:24:39;;;;;;;14.80;12.07;;;;;;;12.79;46.96;100820.28;6215411;28;20229;-58
2021/03/27 01:28:04;;;;;;;11.77;10.67;;;;;;;12.60;47.20;100809.31;6195178;28;20401;-54
2021/03/27 01:31:40;;;;;;;13.50;11.53;;;;;;;12.46;47.74;100802.59;6226541;28;20245;-58
2021/03/27 01:35:04;;;;;;;11.03;9.73;;;;;;;12.49;47.75;100802.53;6214277;28;20618;-53
2021/03/27 01:38:32;;;;;;;10.47;9.03;;;;;;;12.38;47.83;100794.88;6213075;28;20225;-59
2021/03/27 01:42:07;;;;;;;8.87;7.97;;;;;;;12.30;48.11;100789.78;6191952;28;20236;-56
2021/03/27 01:45:56;;;;;;;12.20;9.57;;;;;;;12.36;47.91;100789.66;6213977;28;20547;-58
2021/03/27 01:49:29;;;;;;;12.27;10.47;;;;;;;12.13;48.33;100778.75;6199622;28;20233;-57
2021/03/27 01:53:08;;;;;;;12.40;9.73;;;;;;;11.72;49.81;100770.63;6210131;28;20332;-55
2021/03/27 01:56:42;;;;;;;11.47;10.30;;;;;;;11.41;50.40;100772.81;6197258;28;20229;-57
2021/03/27 02:00:08;;;;;;;11.40;10.20;;;;;;;11.59;50.02;100759.53;6213906;28;20233;-58
2021/03/27 02:03:40;;;;;;;11.13;10.13;;;;;;;11.70;49.82;100748.94;6203716;28;20233;-58
2021/03/27 02:07:06;;;;;;;10.47;9.47;;;;;;;11.03;51.31;100748.06;6213611;28;20256;-56
2021/03/27 02:10:38;;;;;;;9.83;8.93;;;;;;;11.32;51.42;100762.50;6214413;28;20328;-57
2021/03/27 02:14:03;;;;;;;11.57;10.00;;;;;;;11.45;51.18;100766.66;6202122;28;20442;-58
2021/03/27 02:17:31;;;;;;;9.23;8.23;;;;;;;10.99;51.77;100756.81;6196401;28;20230;-56
2021/03/27 02:21:01;;;;;;;10.77;9.10;;;;;;;11.42;50.99;100743.25;6195373;28;20230;-56
2021/03/27 02:24:52;;;;;;;8.73;7.83;;;;;;;11.23;51.51;100740.03;6196021;28;20229;-56
2021/03/27 02:28:28;;;;;;;10.20;9.20;;;;;;;11.31;50.99;100740.78;6194326;28;20238;-57
2021/03/27 02:31:52;;;;;;;12.30;9.07;;;;;;;11.50;50.52;100730.97;6195286;28;20237;-57
2021/03/27 02:35:19;;;;;;;9.53;8.50;;;;;;;11.49;50.72;100724.00;6195474;28;20325;-58
2021/03/27 02:38:53;;;;;;;8.80;7.90;;;;;;;11.72;50.30;100717.59;6196827;28;20329;-55
2021/03/27 02:42:31;;;;;;;9.10;7.83;;;;;;;11.05;51.62;100725.50;6218889;28;20233;-57
2021/03/27 02:46:02;;;;;;;12.60;9.70;;;;;;;11.28;50.91;100713.88;6213205;28;20240;-58
2021/03/27 02:49:32;;;;;;;9.73;8.73;;;;;;;11.18;51.75;100715.75;6207129;28;21133;-55
2021/03/27 02:53:05;;;;;;;12.33;8.83;;;;;;;11.23;51.04;100708.75;6199116;28;20225;-58
2021/03/27 02:56:30;;;;;;;16.43;8.17;;;;;;;11.33;51.08;100712.09;6214637;28;20626;-58
2021/03/27 03:00:01;;;;;;;10.33;8.40;;;;;;;10.85;52.45;100702.25;6213153;28;20270;-57
2021/03/27 03:03:26;;;;;;;9.50;8.33;;;;;;;11.09;51.59;100700.22;6217756;28;20234;-58
2021/03/27 03:06:52;;;;;;;13.47;8.73;;;;;;;11.29;51.16;100702.59;6218846;28;20311;-54
2021/03/27 03:10:22;;;;;;;9.23;8.23;;;;;;;11.27;50.99;100696.53;6208017;28;20237;-57
2021/03/27 03:13:49;;;;;;;9.30;8.40;;;;;;;11.57;50.28;100690.88;6203832;28;20230;-57
2021/03/27 03:17:17;;;;;;;9.90;8.27;;;;;;;11.42;50.63;100694.56;6190674;28;20229;-55
2021/03/27 03:20:46;;;;;;;8.90;7.97;;;;;;;11.25;51.24;100690.47;6195684;28;20236;-56
2021/03/27 03:24:17;;;;;;;8.37;7.47;;;;;;;11.45;50.42;100698.88;6200324;28;20232;-56
2021/03/27 03:27:51;;;;;;;13.93;9.57;;;;;;;11.09;51.21;100695.91;6223452;28;20237;-58
2021/03/27 03:31:22;;;;;;;9.90;8.70;;;;;;;11.43;50.30;100691.06;6192721;28;20241;-57
2021/03/27 03:35:00;;;;;;;10.20;8.10;;;;;;;11.17;50.95;100688.84;6185930;28;20319;-54
2021/03/27 03:38:41;;;;;;;9.17;7.47;;;;;;;11.28;50.45;100687.81;6212759;28;20256;-57
2021/03/27 03:42:18;;;;;;;11.40;7.53;;;;;;;10.70;51.86;100695.50;6211025;28;20233;-56
2021/03/27 03:45:46;;;;;;;7.60;6.80;;;;;;;10.84;51.12;100696.19;6210064;28;20237;-58
2021/03/27 03:49:30;;;;;;;11.30;8.73;;;;;;;10.85;51.93;100694.44;6191969;28;20228;-56
2021/03/27 03:53:10;;;;;;;10.43;9.33;;;;;;;11.18;50.68;100698.38;6193303;28;20320;-57
2021/03/27 03:56:37;;;;;;;9.50;8.43;;;;;;;11.01;51.51;100696.00;6193396;28;20242;-56
2021/03/27 04:00:07;;;;;;;8.63;7.83;;;;;;;10.78;51.82;100700.63;6192401;28;20234;-58
2021/03/27 04:03:35;;;;;;;8.13;7.43;;;;;;;10.88;52.03;100704.84;6195512;28;20221;-57
2021/03/27 04:07:02;;;;;;;8.17;7.27;;;;;;;11.19;51.14;100705.31;6198442;28;20237;-54
2021/03/27 04:10:26;;;;;;;10.20;7.33;;;;;;;10.82;52.92;100702.31;6187275;28;20245;-52
2021/03/27 04:13:54;;;;;;;8.97;6.80;;;;;;;11.03;52.89;100720.28;6207582;28;20602;-54
2021/03/27 04:17:22;;;;;;;17.40;8.93;;;;;;;10.52;55.88;100750.38;6195760;28;20225;-55
2021/03/27 04:20:51;;;;;;;10.37;9.07;;;;;;;10.11;58.94;100757.66;6191729;28;20233;-57
2021/03/27 04:24:17;;;;;;;11.13;10.00;;;;;;;9.73;65.31;100764.00;6199205;28;20228;-54
2021/03/27 04:27:47;;;;;;;10.83;9.13;;;;;;;9.03;68.01;100793.78;6213515;28;20264;-56
2021/03/27 04:31:13;;;;;;;9.00;8.10;;;;;;;9.13;69.06;100803.28;6212604;28;20240;-58
2021/03/27 04:34:39;;;;;;;8.03;7.23;;;;;;;8.91;69.81;100832.78;6197715;28;20582;-55
2021/03/27 04:38:08;;;;;;;8.40;7.70;;;;;;;8.90;71.14;100838.81;6215024;28;20595;-57
2021/03/27 04:41:37;;;;;;;8.17;7.37;;;;;;;8.46;72.73;100849.25;6213829;28;20237;-57
2021/03/27 04:45:07;;;;;;;5.10;4.70;;;;;;;8.05;74.69;100847.47;6211091;28;20232;-58
2021/03/27 04:48:37;;;;;;;5.27;4.80;;;;;;;7.83;75.38;100856.03;6216413;28;20228;-58
2021/03/27 04:52:13;;;;;;;6.17;4.23;;;;;;;7.97;76.27;100882.00;6191993;28;20246;-56
2021/03/27 04:55:39;;;;;;;3.43;2.90;;;;;;;7.71;73.15;100880.19;6210474;28;20579;-55
2021/03/27 04:59:06;;;;;;;2.97;2.77;;;;;;;7.67;73.99;100879.31;6208192;28;20236;-55
2021/03/27 05:02:36;;;;;;;2.90;2.70;;;;;;;8.23;71.05;100882.06;6223057;28;20232;-58
2021/03/27 05:06:08;;;;;;;2.67;2.47;;;;;;;8.11;71.26;100892.44;6214481;28;20252;-60
2021/03/27 05:09:37;;;;;;;2.50;2.30;;;;;;;8.41;70.61;100897.72;6199834;28;20241;-55
2021/03/27 05:13:09;;;;;;;3.00;2.80;;;;;;;7.66;72.17;100928.59;6192035;28;20225;-57
2021/03/27 05:16:34;;;;;;;1.53;1.43;;;;;;;6.88;73.34;100936.69;6180565;28;20259;-56
2021/03/27 05:20:02;;;;;;;1.93;1.83;;;;;;;7.07;72.43;100937.72;6210144;28;20229;-56
2021/03/27 05:23:35;;;;;;;1.40;1.30;;;;;;;6.67;73.61;100950.34;6202046;28;20291;-57
2021/03/27 05:27:10;;;;;;;1.57;1.47;;;;;;;7.01;72.24;100953.22;6205764;28;20221;-53
2021/03/27 05:30:45;;;;;;;1.40;1.30;;;;;;;6.81;72.39;100950.47;6214092;28;20435;-58
2021/03/27 05:34:21;;;;;;;4.53;1.87;;;;;;;7.08;71.68;100965.38;6212687;28;20237;-53
2021/03/27 05:37:54;;;;;;;2.40;2.20;;;;;;;7.56;70.75;100969.16;6191391;28;20228;-55
2021/03/27 05:41:41;;;;;;;2.27;2.10;;;;;;;7.35;70.70;100977.66;6191121;28;20233;-56
2021/03/27 05:45:43;;;;;;;1.73;1.63;;;;;;;6.88;72.67;100979.03;6200584;28;20245;-56
2021/03/27 05:49:38;;;;;;;2.00;1.90;;;;;;;6.93;72.90;100984.22;6185476;28;20262;-56
2021/03/27 05:53:12;;;;;;;2.00;1.90;;;;;;;6.92;72.47;100984.19;6218208;28;20611;-56
2021/03/27 05:57:00;;;;;;;2.57;2.00;;;;;;;6.96;72.76;100991.13;6216261;28;20237;-56
2021/03/27 06:00:45;;;;;;;2.00;1.87;;;;;;;7.05;71.59;100993.81;6217798;28;20244;-55
2021/03/27 06:04:28;;;;;;;2.57;2.37;;;;;;;7.24;71.96;100990.50;6194896;28;20237;-55
2021/03/27 06:08:29;;;;;;;2.20;2.00;;;;;;;7.23;71.40;100999.16;6195413;28;20230;-52
2021/03/27 06:12:09;;;;;;;3.73;3.07;;;;;;;6.79;72.55;100997.03;6196249;28;20328;-56
2021/03/27 06:16:03;;;;;;;4.90;3.07;;;;;;;7.23;71.79;101006.94;6218676;28;20304;-56
2021/03/27 06:20:01;;;;;;;2.67;2.40;;;;;;;6.70;73.60;101008.16;6219046;28;20237;-55
2021/03/27 06:23:51;;;;;;;2.70;2.50;;;;;;;7.12;71.60;101018.06;6218354;28;20241;-52
2021/03/27 06:27:33;;;;;;;2.77;2.57;;;;;;;6.85;72.30;101022.13;6218672;28;20674;-57
2021/03/27 06:31:29;;;;;;;2.97;2.77;;;;;;;6.69;72.77;101027.16;6218229;28;20225;-58
2021/03/27 06:35:01;;;;;;;2.93;2.73;;;;;;;6.66;72.44;101024.53;6202330;28;20557;-56
2021/03/27 06:39:00;;;;;;;3.60;3.30;;;;;;;6.85;71.54;101015.22;6194352;28;20439;-57
2021/03/27 06:42:49;;;;;;;3.47;3.13;;;;;;;6.91;72.35;101022.19;6195512;28;20312;-59
2021/03/27 06:46:23;;;;;;;3.10;2.90;;;;;;;6.80;72.44;101031.56;6195204;28;20516;-55
2021/03/27 06:50:04;;;;;;;3.73;3.53;;;;;;;6.92;72.02;101035.97;6195033;28;20320;-57
2021/03/27 06:53:41;;;;;;;3.80;3.50;;;;;;;6.54;72.20;101045.09;6218405;28;20630;-55
2021/03/27 06:57:19;;;;;;;3.90;3.60;;;;;;;6.76;71.75;101047.91;6216931;28;20434;-56
2021/03/27 07:00:46;;;;;;;4.47;4.03;;;;;;;6.77;71.40;101042.75;6217130;28;20233;-56
2021/03/27 07:04:42;;;;;;;5.47;4.07;;;;;;;6.65;72.36;101058.13;6218212;28;20441;-56
2021/03/27 07:08:18;;;;;;;4.73;4.33;;;;;;;6.70;71.25;101059.06;6213600;28;20323;-58
2021/03/27 07:11:54;;;;;;;5.03;4.57;;;;;;;6.86;71.37;101068.75;6214950;28;20241;-56
2021/03/27 07:15:48;;;;;;;6.57;4.53;;;;;;;6.84;71.59;101083.41;6213579;28;20698;-58
2021/03/27 07:19:58;;;;;;;4.20;3.80;;;;;;;6.77;71.99;101071.22;6196528;28;20241;-58
2021/03/27 07:23:35;;;;;;;4.83;4.33;;;;;;;6.49;72.76;101093.34;6214617;28;20229;-56
2021/03/27 07:27:45;;;;;;;5.40;4.90;;;;;;;6.59;73.65;101091.72;6214987;28;20233;-57
2021/03/27 07:31:18;;;;;;;7.30;5.63;;;;;;;7.14;71.87;101099.22;6217019;28;20778;-57
2021/03/27 07:35:02;;;;;;;5.60;5.10;;;;;;;6.49;73.15;101112.34;6204023;28;20237;-55
2021/03/27 07:38:43;;;;;;;5.23;4.73;;;;;;;6.69;73.03;101132.41;6216200;28;20241;-57
2021/03/27 07:42:29;;;;;;;4.30;4.00;;;;;;;7.29;69.82;101135.63;6216907;28;20233;-58
2021/03/27 07:46:18;;;;;;;2.23;2.10;;;;;;;7.09;68.58;101148.38;6177145;28;20249;-58
2021/03/27 07:50:23;;;;;;;2.70;2.47;;;;;;;7.23;67.58;101138.16;6214731;28;20232;-56
2021/03/27 07:54:15;;;;;;;4.17;2.73;;;;;;;7.41;67.29;101146.09;6215428;28;20228;-55
2021/03/27 07:58:14;;;;;;;2.93;2.67;;;;;;;7.75;66.21;101150.69;6192763;28;20230;-56
2021/03/27 08:01:57;;;;;;;6.00;3.47;;;;;;;7.61;66.60;101137.63;6196887;28;20343;-52
2021/03/27 08:05:38;;;;;;;3.40;2.67;;;;;;;7.61;66.33;101148.88;6210397;28;20225;-55
2021/03/27 08:09:15;;;;;;;4.10;3.40;;;;;;;7.67;65.48;101161.88;6192658;28;20230;-54
2021/03/27 08:12:58;;;;;;;5.73;2.70;;;;;;;8.21;64.97;101169.19;6193300;28;20274;-55
2021/03/27 08:16:46;;;;;;;2.70;2.47;;;;;;;8.12;64.62;101169.13;6162566;28;20558;-58
2021/03/27 08:20:29;;;;;;;3.37;3.13;;;;;;;7.95;64.54;101169.88;6192208;28;20226;-57
2021/03/27 08:24:04;;;;;;;3.83;3.27;;;;;;;7.58;66.29;101169.59;6178111;28;20767;-56
2021/03/27 08:27:56;;;;;;;4.57;3.60;;;;;;;7.13;68.85;101175.19;6216495;28;20228;-59
2021/03/27 08:31:41;;;;;;;4.03;3.63;;;;;;;7.65;67.11;101175.69;6216071;28;20233;-54
2021/03/27 08:35:24;;;;;;;4.90;4.40;;;;;;;7.55;67.60;101174.72;6214510;28;20258;-57
2021/03/27 08:39:05;;;;;;;4.57;4.10;;;;;;;7.66;67.46;101182.63;6215439;28;20233;-58
2021/03/27 08:42:59;;;;;;;5.17;4.63;;;;;;;7.61;67.67;101195.53;6204833;28;20256;-57
2021/03/27 08:46:43;;;;;;;6.97;5.00;;;;;;;7.88;66.66;101188.84;6167560;28;20242;-57
2021/03/27 08:50:25;;;;;;;6.40;5.80;;;;;;;8.67;65.90;101192.84;6215502;28;20674;-54
2021/03/27 08:54:31;;;;;;;7.23;6.40;;;;;;;8.50;67.58;101199.69;6204017;28;20511;-53
2021/03/27 08:58:24;;;;;;;7.30;5.60;;;;;;;9.01;65.27;101209.41;6205267;28;20260;-56
2021/03/27 09:02:14;;;;;;;7.07;6.30;;;;;;;9.18;62.42;101206.88;6183934;28;20610;-57
2021/03/27 09:05:48;;;;;;;8.67;4.93;;;;;;;8.14;63.42;101211.50;6211486;28;20440;-53
2021/03/27 09:09:22;;;;;;;10.53;5.23;;;;;;;8.70;60.60;101212.75;6215026;28;20611;-58
2021/03/27 09:13:10;;;;;;;11.07;5.73;;;;;;;8.75;60.76;101221.44;6200964;28;20522;-57
2021/03/27 09:16:50;;;;;;;5.13;4.60;;;;;;;7.99;61.22;101231.31;6210032;28;20518;-59
2021/03/27 09:20:32;;;;;;;7.33;4.43;;;;;;;8.87;59.45;101222.34;6213034;28;20254;-56
2021/03/27 09:24:06;;;;;;;6.27;4.60;;;;;;;8.78;58.74;101237.03;6204226;28;20315;-55
2021/03/27 09:28:03;;;;;;;9.20;5.13;;;;;;;8.74;59.15;101230.09;6210621;28;20237;-58
2021/03/27 09:31:51;;;;;;;5.77;4.57;;;;;;;8.36;59.81;101226.38;6217022;28;20240;-56
2021/03/27 09:35:32;;;;;;;8.87;5.43;;;;;;;8.23;60.64;101238.38;6202167;28;20513;-56
2021/03/27 09:39:06;;;;;;;10.33;4.93;;;;;;;8.46;58.76;101225.59;6218363;28;20649;-57
2021/03/27 09:42:47;;;;;;;3.97;3.57;;;;;;;8.50;57.91;101236.03;6215690;28;20232;-57
2021/03/27 09:46:15;;;;;;;9.03;4.40;;;;;;;8.37;58.10;101250.59;6215788;28;20229;-54
2021/03/27 09:49:55;;;;;;;9.10;5.57;;;;;;;8.73;57.27;101242.22;6206600;28;20271;-57
2021/03/27 09:53:35;;;;;;;6.60;4.47;;;;;;;8.65;57.19;101247.34;6199390;28;20237;-57
2021/03/27 09:57:02;;;;;;;6.13;4.83;;;;;;;9.29;55.22;101258.91;6219239;28;20233;-57
2021/03/27 10:00:53;;;;;;;6.90;3.90;;;;;;;8.25;57.25;101256.56;6216060;28;20229;-57
2021/03/27 10:04:28;;;;;;;5.37;4.20;;;;;;;8.48;57.48;101252.44;6209959;28;20221;-57
2021/03/27 10:07:58;;;;;;;4.83;4.13;;;;;;;9.05;57.22;101262.25;6218815;28;20224;-58
2021/03/27 10:11:23;;;;;;;9.00;4.83;;;;;;;7.03;66.96;101264.84;6207292;28;20608;-57
2021/03/27 10:14:51;;;;;;;7.57;6.40;;;;;;;8.06;69.47;101274.59;6215075;28;20249;-57
2021/03/27 10:18:19;;;;;;;8.20;6.03;;;;;;;8.34;68.64;101303.34;6217322;28;20233;-57
2021/03/27 10:21:48;;;;;;;5.57;4.30;;;;;;;6.25;73.21;101373.25;6218393;28;20240;-56
2021/03/27 10:25:18;;;;;;;5.27;2.83;;;;;;;5.17;72.39;101363.34;6216976;28;20229;-57
2021/03/27 10:28:46;;;;;;;3.00;2.70;;;;;;;5.93;71.26;101345.03;6214603;28;20236;-56
2021/03/27 10:32:51;;;;;;;3.40;2.90;;;;;;;6.68;68.80;101332.53;6212001;28;20252;-59
2021/03/27 10:36:30;;;;;;;2.77;2.57;;;;;;;6.88;69.27;101336.31;6206122;28;20594;-54
2021/03/27 10:40:31;;;;;;;3.00;2.70;;;;;;;6.60;68.90;101341.91;6214136;28;20229;-54
2021/03/27 10:44:02;;;;;;;5.80;3.23;;;;;;;6.81;68.39;101329.28;6203176;28;20237;-57
2021/03/27 10:47:32;;;;;;;10.70;5.97;;;;;;;6.68;68.09;101353.25;6211420;28;21765;-58
2021/03/27 10:51:17;;;;;;;3.77;3.37;;;;;;;6.88;67.88;101356.13;6221993;28;20726;-56
2021/03/27 10:54:58;;;;;;;3.80;3.10;;;;;;;7.10;68.28;101352.16;6192593;28;20606;-57
2021/03/27 10:58:48;;;;;;;6.80;3.17;;;;;;;7.64;67.21;101358.00;6209392;28;20320;-53
2021/03/27 11:02:43;;;;;;;5.10;3.10;;;;;;;8.90;61.07;101364.38;6215404;28;20236;-59
2021/03/27 11:06:17;;;;;;;3.50;2.77;;;;;;;12.00;52.51;101358.41;6202067;28;20233;-60
2021/03/27 11:10:09;;;;;;;5.90;2.90;;;;;;;10.46;54.84;101371.00;6206754;28;20260;-58
2021/03/27 11:13:59;;;;;;;2.43;2.23;;;;;;;12.96;48.57;101381.13;6199361;28;20661;-57
2021/03/27 11:17:38;;;;;;;4.20;2.23;;;;;;;9.40;59.28;101381.09;6211486;28;20237;-55
2021/03/27 11:21:15;;;;;;;5.50;2.40;;;;;;;8.52;61.38;101396.09;6211282;28;20232;-55
2021/03/27 11:25:04;;;;;;;6.73;3.20;;;;;;;9.00;60.97;101405.13;6215820;28;20645;-57
2021/03/27 11:28:28;;;;;;;9.77;4.00;;;;;;;9.30;59.19;101416.56;6207921;28;20241;-56
2021/03/27 11:31:52;;;;;;;5.10;2.33;;;;;;;8.84;58.82;101430.13;6212554;28;20245;-57
2021/03/27 11:35:21;;;;;;;2.97;1.80;;;;;;;9.52;55.77;101419.28;6215273;28;20241;-55
2021/03/27 11:38:46;;;;;;;4.07;2.00;;;;;;;10.59;52.99;101414.41;6215198;28;20598;-58
2021/03/27 11:42:31;;;;;;;4.00;2.67;;;;;;;10.43;53.77;101420.50;6211885;28;20245;-58
2021/03/27 11:46:02;;;;;;;2.13;2.03;;;;;;;11.70;51.20;101418.56;6211280;28;20225;-57
2021/03/27 11:49:36;;;;;;;7.53;2.57;;;;;;;13.35;45.98;101426.09;6204692;28;20316;-57
2021/03/27 11:53:06;;;;;;;6.63;4.37;;;;;;;11.00;53.15;101436.13;6205696;28;20233;-58
2021/03/27 11:56:39;;;;;;;4.10;2.63;;;;;;;10.37;53.66;101455.19;6205069;28;20602;-58
2021/03/27 12:04:05;;;;;;;6.67;2.20;;;;;;;8.35;58.24;101504.91;6180080;28;20225;-58
2021/03/27 12:07:36;;;;;;;5.13;1.67;;;;;;;8.24;55.30;101502.22;6207267;28;20230;-60
2021/03/27 12:11:06;;;;;;;4.20;1.63;;;;;;;7.88;56.67;101536.34;6197071;28;20229;-58
2021/03/27 12:14:33;;;;;;;3.47;1.80;;;;;;;7.28;59.84;101543.25;6212613;28;20253;-57
2021/03/27 12:18:04;;;;;;;2.93;2.33;;;;;;;6.79;59.86;101569.16;6202752;28;20225;-55
2021/03/27 12:21:29;;;;;;;4.37;1.87;;;;;;;7.58;57.20;101536.78;6204746;28;20577;-58
2021/03/27 12:25:14;;;;;;;3.77;2.43;;;;;;;7.82;55.54;101541.47;6203743;28;20222;-59
2021/03/27 12:28:46;;;;;;;2.20;1.27;;;;;;;8.22;52.94;101541.94;6172158;28;20273;-54
2021/03/27 12:32:44;;;;;;;2.30;0.90;;;;;;;8.24;51.25;101561.03;6188249;28;20246;-58
2021/03/27 12:36:10;;;;;;;4.77;1.50;;;;;;;8.03;52.10;101572.00;6206964;28;20259;-55
2021/03/27 12:39:42;;;;;;;4.20;1.53;;;;;;;7.52;54.39;101572.97;6201112;28;20240;-58
2021/03/27 12:43:07;;;;;;;4.87;2.13;;;;;;;7.75;55.11;101576.78;6195984;28;20234;-56
2021/03/27 12:46:43;;;;;;;6.90;3.03;;;;;;;7.07;57.95;101580.88;6201054;28;20233;-57
2021/03/27 12:50:20;;;;;;;8.47;2.53;;;;;;;8.06;56.54;101572.94;6198372;28;20319;-59
2021/03/27 12:54:06;;;;;;;6.33;2.73;;;;;;;10.04;51.92;101571.31;6195665;28;20355;-59
2021/03/27 12:57:55;;;;;;;5.30;2.43;;;;;;;12.45;45.77;101567.06;6195639;28;20229;-58
2021/03/27 13:01:47;;;;;;;6.67;3.20;;;;;;;14.47;41.82;101567.91;6199472;28;20245;-58
2021/03/27 13:05:28;;;;;;;10.47;3.23;;;;;;;13.35;43.31;101570.84;6192563;28;20777;-56
2021/03/27 13:09:18;;;;;;;7.00;3.23;;;;;;;12.28;44.34;101587.16;6195247;28;20229;-57
2021/03/27 13:12:49;;;;;;;9.80;3.80;;;;;;;10.13;50.57;101590.44;6202260;28;20513;-57
2021/03/27 13:16:17;;;;;;;8.37;3.37;;;;;;;9.52;51.20;101591.78;6192863;28;20253;-60
2021/03/27 13:19:44;;;;;;;6.87;3.10;;;;;;;8.99;52.96;101595.63;6182843;28;20504;-57
2021/03/27 13:23:11;;;;;;;14.07;4.63;;;;;;;8.79;54.13;101597.19;6182923;28;20233;-58
2021/03/27 13:26:33;;;;;;;11.00;3.70;;;;;;;8.97;54.05;101602.53;6195373;28;20252;-57
2021/03/27 13:30:11;;;;;;;7.43;3.27;;;;;;;9.15;53.98;101593.19;6179581;28;20237;-58
2021/03/27 13:33:38;;;;;;;7.23;3.10;;;;;;;8.74;54.66;101604.91;6190880;28;20236;-58
2021/03/27 13:37:09;;;;;;;8.63;3.27;;;;;;;8.40;55.13;101607.06;6197483;28;20232;-57
2021/03/27 13:40:33;;;;;;;8.67;3.93;;;;;;;10.08;51.33;101603.44;6194118;28;20232;-56
2021/03/27 13:44:04;;;;;;;9.07;3.83;;;;;;;10.81;50.24;101597.66;6181133;28;20236;-58
2021/03/27 13:47:38;;;;;;;10.53;3.90;;;;;;;11.17;48.60;101611.63;6198265;28;20251;-55
2021/03/27 13:51:07;;;;;;;11.30;3.17;;;;;;;10.24;50.02;101607.84;6178837;28;20228;-57
2021/03/27 13:54:46;;;;;;;12.90;4.30;;;;;;;9.95;50.11;101615.50;6197920;28;20518;-56
2021/03/27 13:58:19;;;;;;;7.07;3.10;;;;;;;10.46;48.79;101615.78;6194803;28;20233;-58
2021/03/27 14:01:45;;;;;;;9.83;4.77;;;;;;;11.87;45.02;101607.25;6187738;28;20634;-56
2021/03/27 14:05:16;;;;;;;10.93;4.37;;;;;;;14.26;40.65;101606.56;6190180;28;20237;-58
2021/03/27 14:08:50;;;;;;;7.60;4.37;;;;;;;15.60;37.91;101611.69;6195417;28;20242;-58
2021/03/27 14:12:18;;;;;;;6.87;3.73;;;;;;;13.82;39.52;101628.84;6191732;28;20237;-55
2021/03/27 14:15:42;;;;;;;13.90;4.30;;;;;;;11.57;45.01;101629.03;6174561;28;20725;-59
2021/03/27 14:19:26;;;;;;;6.53;3.00;;;;;;;11.27;45.03;101637.72;6202233;28;20718;-55
2021/03/27 14:23:16;;;;;;;8.30;3.53;;;;;;;11.41;44.85;101656.84;6184848;28;20233;-58
2021/03/27 14:26:58;;;;;;;9.13;2.70;;;;;;;10.93;49.96;101666.31;6204826;28;20225;-70
2021/03/27 14:30:40;;;;;;;11.13;4.83;;;;;;;9.89;51.04;101664.00;6211709;28;20226;-69
2021/03/27 14:34:22;;;;;;;11.30;3.73;;;;;;;8.95;53.15;101677.00;6201196;28;20237;-52
2021/03/27 14:37:54;;;;;;;11.07;5.80;;;;;;;9.10;52.66;101686.69;6200475;28;20237;-52
2021/03/27 14:41:25;;;;;;;10.27;3.47;;;;;;;9.05;52.28;101704.84;6199672;28;20668;-55
2021/03/27 14:44:53;;;;;;;8.60;3.23;;;;;;;8.53;53.30;101698.13;6199232;28;20307;-56
2021/03/27 14:48:21;;;;;;;8.30;3.20;;;;;;;9.26;51.05;101706.78;6201150;28;20225;-56
2021/03/27 14:51:49;;;;;;;9.43;3.20;;;;;;;9.84;49.25;101701.25;6201747;28;20232;-55
2021/03/27 14:55:29;;;;;;;6.27;2.83;;;;;;;9.73;49.46;101715.03;6200068;28;20389;-53
2021/03/27 14:59:02;;;;;;;5.70;2.47;;;;;;;10.05;56.02;101697.94;6198512;28;20253;-60
2021/03/27 15:02:31;;;;;;;8.83;2.90;;;;;;;10.61;53.35;101688.78;6203535;28;20233;-56
2021/03/27 15:06:04;;;;;;;7.13;3.20;;;;;;;10.34;50.86;101714.69;6202201;28;20237;-55
2021/03/27 15:09:33;;;;;;;11.20;3.00;;;;;;;9.02;52.44;101722.13;6200485;28;20244;-58
2021/03/27 15:13:02;;;;;;;10.90;4.03;;;;;;;8.98;54.85;101723.81;6205684;28;20283;-55
2021/03/27 15:16:42;;;;;;;7.70;3.57;;;;;;;9.65;52.66;101738.38;6204699;28;20316;-55
2021/03/27 15:20:24;;;;;;;10.20;3.33;;;;;;;9.71;49.44;101764.44;6200461;28;20861;-58
2021/03/27 15:23:51;;;;;;;8.80;3.43;;;;;;;9.31;49.71;101748.44;6202619;28;20602;-58
2021/03/27 15:27:16;;;;;;;11.13;3.37;;;;;;;8.87;50.28;101767.81;6205023;28;20321;-55
2021/03/27 15:30:42;;;;;;;8.30;3.13;;;;;;;9.90;48.37;101760.28;6203419;28;20328;-56
2021/03/27 15:34:07;;;;;;;9.97;3.23;;;;;;;9.89;48.16;101768.06;6204161;28;20225;-54
2021/03/27 15:37:36;;;;;;;14.00;3.57;;;;;;;10.95;45.68;101777.53;6202843;28;20554;-56
2021/03/27 15:41:01;;;;;;;7.90;3.60;;;;;;;10.57;46.88;101779.94;6205920;28;20225;-55
2021/03/27 15:44:27;;;;;;;9.97;3.17;;;;;;;10.65;47.22;101796.47;6200873;28;20598;-57
2021/03/27 15:47:51;;;;;;;11.63;3.90;;;;;;;9.40;46.04;101784.06;6195385;28;20229;-59
2021/03/27 15:51:22;;;;;;;6.53;2.80;;;;;;;9.89;45.84;101794.97;6212408;28;20977;-58
2021/03/27 15:54:49;;;;;;;10.70;4.00;;;;;;;10.36;44.45;101791.06;6199449;28;20232;-54
2021/03/27 15:58:23;;;;;;;9.40;2.80;;;;;;;9.54;45.81;101792.00;6207207;28;20237;-58
2021/03/27 16:01:52;;;;;;;8.03;2.47;;;;;;;9.29;45.33;101796.09;6215011;28;20244;-54
2021/03/27 16:05:29;;;;;;;9.77;3.07;;;;;;;9.25;45.33;101806.44;6207105;28;20224;-58
2021/03/27 16:08:56;;;;;;;10.00;2.77;;;;;;;8.53;48.38;101818.44;6209137;28;20229;-58
2021/03/27 16:12:21;;;;;;;9.33;3.03;;;;;;;8.77;48.79;101814.47;6208141;28;20236;-57
2021/03/27 16:15:52;;;;;;;11.40;3.07;;;;;;;8.65;49.35;101817.75;6211866;28;20661;-57
2021/03/27 16:19:27;;;;;;;5.73;2.33;;;;;;;9.50;48.05;101829.22;6210990;28;20224;-57
2021/03/27 16:22:53;;;;;;;5.67;2.80;;;;;;;9.33;47.63;101836.84;6213183;28;20233;-58
2021/03/27 16:26:33;;;;;;;4.20;2.23;;;;;;;9.68;46.93;101847.66;6210128;28;20230;-57
2021/03/27 16:30:07;;;;;;;8.60;2.43;;;;;;;9.77;47.07;101852.06;6211470;28;20229;-58
2021/03/27 16:33:33;;;;;;;6.57;2.40;;;;;;;9.73;47.34;101856.41;6211125;28;20233;-57
2021/03/27 16:36:59;;;;;;;9.50;2.40;;;;;;;9.36;48.82;101870.66;6199228;28;20237;-57
2021/03/27 16:40:33;;;;;;;11.23;3.47;;;;;;;9.46;48.39;101872.56;6215265;28;20241;-57
2021/03/27 16:44:01;;;;;;;7.07;2.20;;;;;;;9.44;48.22;101875.13;6200414;28;20241;-58
2021/03/27 16:47:28;;;;;;;5.60;2.30;;;;;;;9.33;48.10;101887.13;6212475;28;20385;-58